Time;durP1;ratioP1;P1;durP2;ratioP2;P2;SDS_P1;SDS_P2;PMS_P1;PMS_P2;Temp;Humidity;BMP_temperature;BMP_pressure;BME280_temperature;BME280_humidity;BME280_pressure;Samples;Min_cycle;Max_cycle;Signal;HPM_P1;HPM_P2
2023/07/26 00:02:12;;;;;;;0.63;0.63;;;;;;;15.99;98.12;94869.72;4348499;32;20184;-62
2023/07/26 00:04:37;;;;;;;0.70;0.70;;;;;;;15.94;95.33;94877.19;4350854;32;20203;-63
2023/07/26 00:07:03;;;;;;;0.30;0.30;;;;;;;15.93;94.03;94880.97;4361973;32;20236;-63
2023/07/26 00:09:28;;;;;;;0.20;0.20;;;;;;;15.95;94.54;94890.22;4362021;32;20246;-63
2023/07/26 00:11:53;;;;;;;1.13;0.83;;;;;;;15.88;95.53;94883.88;4361120;32;20203;-63
2023/07/26 00:14:19;;;;;;;0.70;0.70;;;;;;;15.91;94.46;94893.91;4362241;32;20185;-62
2023/07/26 00:16:44;;;;;;;0.23;0.23;;;;;;;15.96;95.96;94893.69;4355565;32;20287;-62
2023/07/26 00:19:10;;;;;;;0.13;0.13;;;;;;;16.00;96.33;94903.34;4349677;32;20185;-63
2023/07/26 00:21:35;;;;;;;0.50;0.50;;;;;;;16.08;97.23;94902.47;4352908;32;20193;-63
2023/07/26 00:24:01;;;;;;;0.50;0.50;;;;;;;15.95;95.26;94905.50;4357489;32;20189;-63
2023/07/26 00:26:26;;;;;;;0.37;0.37;;;;;;;15.88;94.35;94907.97;4353560;32;20235;-63
2023/07/26 00:28:51;;;;;;;0.60;0.40;;;;;;;16.00;97.13;94910.63;4346440;32;20255;-62
2023/07/26 00:31:17;;;;;;;0.40;0.40;;;;;;;15.93;94.74;94911.19;4361894;32;20207;-63
2023/07/26 00:33:42;;;;;;;1.13;1.07;;;;;;;16.02;94.96;94911.06;4360557;32;20208;-63
2023/07/26 00:36:08;;;;;;;0.73;0.73;;;;;;;15.92;95.55;94908.84;4349193;32;20242;-63
2023/07/26 00:38:33;;;;;;;0.63;0.63;;;;;;;15.81;93.02;94919.22;4343773;32;20192;-62
2023/07/26 00:40:59;;;;;;;0.40;0.40;;;;;;;15.80;94.74;94915.75;4357512;32;20194;-63
2023/07/26 00:43:24;;;;;;;0.30;0.30;;;;;;;15.58;93.91;94912.78;4340850;32;20275;-62
2023/07/26 00:45:50;;;;;;;0.30;0.30;;;;;;;15.80;97.34;94926.47;4345284;32;20276;-63
2023/07/26 00:48:15;;;;;;;0.60;0.60;;;;;;;15.71;95.90;94925.81;4342308;32;20203;-62
2023/07/26 00:50:43;;;;;;;0.60;0.60;;;;;;;15.80;94.84;94921.09;4356052;32;20242;-62
2023/07/26 00:53:09;;;;;;;0.70;0.70;;;;;;;15.93;96.79;94923.78;4343220;32;20184;-63
2023/07/26 00:55:35;;;;;;;0.40;0.40;;;;;;;15.73;95.05;94926.25;4344404;32;20243;-62
2023/07/26 00:58:01;;;;;;;0.37;0.37;;;;;;;15.70;95.27;94932.28;4351316;32;20205;-63
2023/07/26 01:00:26;;;;;;;0.60;0.60;;;;;;;15.67;95.88;94935.62;4348190;32;20192;-62
2023/07/26 01:02:52;;;;;;;0.80;0.80;;;;;;;15.72;95.78;94935.41;4360147;32;20267;-62
2023/07/26 01:05:19;;;;;;;1.07;1.07;;;;;;;15.84;96.42;94936.50;4360503;32;20198;-62
2023/07/26 01:08:06;;;;;;;0.63;0.63;;;;;;;15.78;97.05;94936.75;4342701;32;20240;-61
2023/07/26 01:10:57;;;;;;;0.33;0.33;;;;;;;15.88;96.41;94940.06;4344022;32;20185;-62
2023/07/26 01:13:40;;;;;;;1.03;0.93;;;;;;;16.08;96.76;94941.81;4353647;32;20244;-62
2023/07/26 01:16:06;;;;;;;0.83;0.83;;;;;;;15.89;95.55;94949.66;4332784;32;20185;-62
2023/07/26 01:18:31;;;;;;;0.67;0.67;;;;;;;15.80;94.76;94945.19;4342959;32;20340;-62
2023/07/26 01:20:57;;;;;;;0.67;0.67;;;;;;;15.77;93.78;94942.41;4352401;32;20259;-62
2023/07/26 01:23:22;;;;;;;0.70;0.70;;;;;;;15.73;94.97;94947.66;4347656;32;20193;-62
2023/07/26 01:25:48;;;;;;;1.30;0.60;;;;;;;16.04;96.62;94951.62;4357079;32;20190;-62
2023/07/26 01:28:14;;;;;;;0.40;0.40;;;;;;;15.81;95.59;94949.41;4356257;32;20189;-62
2023/07/26 01:30:39;;;;;;;0.60;0.60;;;;;;;15.71;94.47;94955.22;4356484;32;20273;-63
2023/07/26 01:33:07;;;;;;;1.03;1.03;;;;;;;15.80;95.47;94957.78;4353880;32;20189;-62
2023/07/26 01:35:34;;;;;;;0.73;0.73;;;;;;;15.65;95.64;94961.13;4346703;32;20335;-62
2023/07/26 01:38:00;;;;;;;0.60;0.60;;;;;;;15.92;96.38;94965.03;4342686;32;20216;-63
2023/07/26 01:40:26;;;;;;;1.67;1.07;;;;;;;15.81;96.56;94956.66;4343898;32;20197;-63
2023/07/26 01:42:53;;;;;;;0.87;0.87;;;;;;;15.59;95.38;94957.88;4354008;32;20247;-62
2023/07/26 01:45:18;;;;;;;1.30;1.20;;;;;;;15.63;96.18;94964.13;4353616;32;20243;-62
2023/07/26 01:47:43;;;;;;;0.50;0.50;;;;;;;15.77;95.67;94964.59;4347517;32;20233;-63
2023/07/26 01:50:09;;;;;;;1.33;1.33;;;;;;;15.86;96.10;94966.38;4345890;32;20215;-61
2023/07/26 01:52:34;;;;;;;1.10;1.10;;;;;;;15.88;95.32;94964.13;4352476;32;20189;-62
2023/07/26 01:55:00;;;;;;;1.47;1.00;;;;;;;15.84;94.40;94961.34;4355682;32;20260;-62
2023/07/26 01:57:26;;;;;;;0.70;0.70;;;;;;;15.87;95.15;94970.59;4360306;32;20258;-62
2023/07/26 01:59:52;;;;;;;0.80;0.80;;;;;;;15.64;94.80;94971.03;4346054;32;20211;-62
2023/07/26 02:02:18;;;;;;;0.73;0.73;;;;;;;15.80;95.24;94971.94;4343816;32;20193;-62
2023/07/26 02:04:43;;;;;;;1.13;1.13;;;;;;;15.66;95.62;94973.38;4352704;32;20231;-62
2023/07/26 02:07:09;;;;;;;1.17;1.13;;;;;;;15.81;94.37;94965.47;4356885;32;20189;-62
2023/07/26 02:09:34;;;;;;;5.03;1.33;;;;;;;15.91;94.63;94974.16;4346296;32;20211;-61
2023/07/26 02:11:59;;;;;;;1.80;1.70;;;;;;;15.78;94.44;94979.53;4343897;32;20244;-62
2023/07/26 02:14:25;;;;;;;0.60;0.60;;;;;;;16.02;96.28;94980.63;4341016;32;20258;-62
2023/07/26 02:16:50;;;;;;;0.80;0.80;;;;;;;15.87;93.18;94973.28;4359886;32;20189;-62
2023/07/26 02:19:15;;;;;;;1.27;0.97;;;;;;;16.07;95.95;94989.22;4353055;32;20264;-62
2023/07/26 02:21:41;;;;;;;1.13;1.03;;;;;;;15.95;95.38;94985.78;4347889;32;20207;-62
2023/07/26 02:24:06;;;;;;;0.57;0.57;;;;;;;16.12;95.47;94990.88;4352035;32;20229;-62
2023/07/26 02:26:31;;;;;;;6.50;1.23;;;;;;;16.04;92.12;94989.09;4356034;32;20272;-62
2023/07/26 02:28:56;;;;;;;8.83;1.97;;;;;;;15.94;92.67;94994.91;4351945;32;20204;-62
2023/07/26 02:31:22;;;;;;;3.20;0.70;;;;;;;16.15;95.44;94990.22;4351572;32;20245;-62
2023/07/26 02:33:47;;;;;;;1.10;1.10;;;;;;;16.17;95.10;94995.22;4351887;32;20241;-62
2023/07/26 02:36:12;;;;;;;0.47;0.47;;;;;;;16.09;93.00;95007.59;4349763;32;20185;-62
2023/07/26 02:38:38;;;;;;;0.50;0.50;;;;;;;16.09;93.83;95012.97;4347668;32;20189;-62
2023/07/26 02:41:03;;;;;;;0.60;0.60;;;;;;;16.18;94.27;95002.16;4345168;32;20299;-62
2023/07/26 02:43:28;;;;;;;1.10;1.10;;;;;;;16.08;93.57;95006.03;4359204;32;20193;-62
2023/07/26 02:45:54;;;;;;;0.87;0.87;;;;;;;16.06;93.78;95002.91;4343767;32;20203;-62
2023/07/26 02:48:19;;;;;;;0.77;0.77;;;;;;;16.24;95.53;95006.13;4345848;32;20185;-62
2023/07/26 02:50:44;;;;;;;2.43;1.73;;;;;;;16.09;93.75;95012.97;4356080;32;20207;-63
2023/07/26 02:53:10;;;;;;;0.90;0.90;;;;;;;16.08;94.15;95019.44;4353662;32;20245;-62
2023/07/26 02:55:35;;;;;;;0.73;0.73;;;;;;;16.14;93.61;95026.13;4344369;32;20231;-62
2023/07/26 02:58:01;;;;;;;1.20;0.80;;;;;;;16.04;92.36;95026.56;4345165;32;20217;-62
2023/07/26 03:00:27;;;;;;;0.77;0.77;;;;;;;16.00;92.85;95031.78;4335967;32;20209;-62
2023/07/26 03:02:52;;;;;;;0.83;0.83;;;;;;;15.99;94.21;95032.16;4319819;32;20271;-63
2023/07/26 03:05:17;;;;;;;1.63;1.13;;;;;;;16.09;93.72;95034.38;4346229;32;20303;-62
2023/07/26 03:07:42;;;;;;;1.87;1.60;;;;;;;16.07;92.56;95031.25;4346522;32;20208;-62
2023/07/26 03:10:08;;;;;;;0.80;0.80;;;;;;;15.99;91.81;95038.28;4347414;32;20189;-62
2023/07/26 03:12:34;;;;;;;1.20;1.20;;;;;;;15.94;93.52;95035.03;4343275;32;20256;-62
2023/07/26 03:15:00;;;;;;;0.60;0.60;;;;;;;15.80;92.80;95044.16;4343464;32;20202;-62
2023/07/26 03:17:25;;;;;;;4.30;1.67;;;;;;;15.69;92.30;95039.59;4349970;32;20231;-62
2023/07/26 03:19:51;;;;;;;0.77;0.77;;;;;;;15.62;92.48;95048.16;4344139;32;20194;-62
2023/07/26 03:22:16;;;;;;;2.20;1.27;;;;;;;15.47;95.07;95033.50;4348696;32;20207;-62
2023/07/26 03:24:41;;;;;;;1.70;1.60;;;;;;;15.64;95.61;95040.56;4350168;32;20228;-62
2023/07/26 03:27:08;;;;;;;1.07;1.07;;;;;;;15.80;95.27;95044.16;4347724;32;20189;-62
2023/07/26 03:29:33;;;;;;;1.93;1.77;;;;;;;15.61;94.71;95041.22;4358097;32;20193;-63
2023/07/26 03:31:58;;;;;;;0.53;0.53;;;;;;;15.45;94.98;95041.06;4345659;32;20239;-62
2023/07/26 03:34:24;;;;;;;1.07;1.07;;;;;;;15.51;96.47;95046.22;4348076;32;20252;-62
2023/07/26 03:36:50;;;;;;;1.13;1.13;;;;;;;15.73;95.84;95046.63;4362186;32;20196;-62
2023/07/26 03:39:15;;;;;;;0.80;0.80;;;;;;;15.54;94.84;95048.22;4348976;32;20204;-62
2023/07/26 03:41:41;;;;;;;0.97;0.97;;;;;;;15.68;95.42;95059.41;4359903;32;20223;-62
2023/07/26 03:44:06;;;;;;;0.80;0.80;;;;;;;15.63;93.05;95059.63;4345539;32;20185;-62
2023/07/26 03:46:31;;;;;;;1.60;1.40;;;;;;;15.85;95.67;95066.47;4358221;32;20260;-62
2023/07/26 03:48:57;;;;;;;0.83;0.83;;;;;;;15.88;94.73;95068.47;4353646;32;20256;-62
2023/07/26 03:51:22;;;;;;;1.30;1.30;;;;;;;15.75;95.39;95067.69;4351019;32;20277;-63
2023/07/26 03:53:47;;;;;;;1.10;1.10;;;;;;;15.70;94.26;95063.31;4340820;32;20186;-62
2023/07/26 03:56:12;;;;;;;0.83;0.83;;;;;;;15.80;96.02;95060.22;4347840;32;20189;-62
2023/07/26 03:58:38;;;;;;;1.03;1.03;;;;;;;15.73;95.46;95064.56;4348063;32;20189;-62
2023/07/26 04:01:03;;;;;;;0.50;0.50;;;;;;;15.77;94.50;95068.91;4340481;32;20197;-62
2023/07/26 04:03:28;;;;;;;1.10;1.10;;;;;;;15.92;96.61;95077.41;4326480;32;20227;-62
2023/07/26 04:05:54;;;;;;;0.90;0.90;;;;;;;15.82;96.19;95078.59;4346000;32;20185;-62
2023/07/26 04:08:19;;;;;;;0.90;0.90;;;;;;;15.92;95.10;95077.41;4347257;32;20241;-62
2023/07/26 04:10:44;;;;;;;1.23;1.23;;;;;;;16.03;95.55;95084.66;4357441;32;20196;-62
2023/07/26 04:13:10;;;;;;;1.07;1.07;;;;;;;15.69;93.15;95080.47;4361178;32;20197;-62
2023/07/26 04:15:35;;;;;;;0.63;0.63;;;;;;;15.70;92.52;95087.41;4359581;32;20201;-62
2023/07/26 04:18:00;;;;;;;1.57;1.50;;;;;;;15.76;92.92;95085.31;4347523;32;20194;-62
2023/07/26 04:20:25;;;;;;;1.70;1.60;;;;;;;15.76;94.07;95086.09;4344114;32;20201;-62
2023/07/26 04:22:51;;;;;;;1.13;1.13;;;;;;;15.71;93.75;95083.59;4347720;32;20192;-62
2023/07/26 04:25:16;;;;;;;1.73;1.50;;;;;;;15.81;94.80;95093.09;4361037;32;20188;-62
2023/07/26 04:27:41;;;;;;;3.80;1.63;;;;;;;15.86;94.21;95092.09;4344950;32;20245;-62
2023/07/26 04:30:07;;;;;;;3.13;2.83;;;;;;;15.99;94.22;95093.69;4357065;32;20231;-63
2023/07/26 04:32:32;;;;;;;0.73;0.73;;;;;;;15.94;93.23;95093.91;4348090;32;20284;-63
2023/07/26 04:34:58;;;;;;;0.77;0.77;;;;;;;15.83;93.15;95090.88;4360200;32;20270;-62
2023/07/26 04:37:23;;;;;;;2.00;1.87;;;;;;;15.81;93.99;95101.91;4343184;32;20193;-63
2023/07/26 04:39:49;;;;;;;1.83;1.57;;;;;;;15.73;93.32;95102.00;4347495;32;20212;-62
2023/07/26 04:42:14;;;;;;;0.93;0.93;;;;;;;15.74;94.89;95101.69;4345318;32;20194;-62
2023/07/26 04:44:40;;;;;;;1.53;1.43;;;;;;;15.77;94.05;95105.59;4358289;32;20193;-62
2023/07/26 04:47:05;;;;;;;1.17;1.17;;;;;;;15.90;94.77;95106.38;4344856;32;20208;-61
2023/07/26 04:49:30;;;;;;;2.80;2.60;;;;;;;15.74;92.72;95112.38;4343824;32;20245;-62
2023/07/26 04:51:56;;;;;;;1.87;1.77;;;;;;;15.73;93.12;95107.34;4347304;32;20256;-62
2023/07/26 04:54:21;;;;;;;1.70;1.67;;;;;;;15.95;94.83;95108.84;4345101;32;20197;-62
2023/07/26 04:56:46;;;;;;;2.50;2.30;;;;;;;15.91;91.08;95114.06;4361534;32;20228;-62
2023/07/26 04:59:12;;;;;;;1.93;1.83;;;;;;;16.04;94.65;95117.53;4346373;32;20267;-62
2023/07/26 05:01:37;;;;;;;9.27;2.77;;;;;;;16.03;94.46;95121.34;4355623;32;20288;-62
2023/07/26 05:04:03;;;;;;;3.63;2.57;;;;;;;16.14;95.88;95127.81;4350999;32;20228;-62
2023/07/26 05:06:30;;;;;;;2.47;2.27;;;;;;;15.75;91.80;95132.66;4357366;32;20219;-62
2023/07/26 05:08:56;;;;;;;1.27;1.27;;;;;;;15.93;95.82;95133.25;4359562;32;20244;-62
2023/07/26 05:11:22;;;;;;;2.53;2.43;;;;;;;16.01;94.75;95132.38;4357248;32;20251;-62
2023/07/26 05:13:48;;;;;;;1.90;1.80;;;;;;;16.07;94.45;95139.06;4339421;32;20224;-63
2023/07/26 05:16:14;;;;;;;2.60;1.90;;;;;;;15.85;92.19;95134.12;4351969;32;20203;-62
2023/07/26 05:18:39;;;;;;;1.90;1.80;;;;;;;15.77;92.99;95130.44;4357664;32;20252;-62
2023/07/26 05:21:04;;;;;;;2.57;2.47;;;;;;;15.64;92.51;95138.75;4357283;32;20201;-62
2023/07/26 05:23:29;;;;;;;2.00;1.83;;;;;;;15.51;92.18;95145.13;4343091;32;20239;-62
2023/07/26 05:25:55;;;;;;;2.27;2.17;;;;;;;15.66;92.86;95149.88;4347741;32;20208;-62
2023/07/26 05:28:20;;;;;;;2.63;2.43;;;;;;;15.70;92.52;95154.25;4355746;32;20221;-62
2023/07/26 05:30:46;;;;;;;3.17;2.97;;;;;;;15.71;91.90;95161.19;4342179;32;20201;-62
2023/07/26 05:33:11;;;;;;;2.73;2.53;;;;;;;15.81;93.54;95155.41;4344961;32;20188;-63
2023/07/26 05:35:38;;;;;;;2.40;2.30;;;;;;;15.80;92.12;95169.09;4352582;32;20236;-62
2023/07/26 05:38:03;;;;;;;2.50;2.40;;;;;;;15.69;91.71;95166.06;4344464;32;20308;-62
2023/07/26 05:40:29;;;;;;;1.97;1.87;;;;;;;15.86;93.01;95167.00;4351998;32;20197;-62
2023/07/26 05:42:54;;;;;;;3.57;3.37;;;;;;;15.84;92.92;95177.25;4340657;32;20229;-62
2023/07/26 05:45:19;;;;;;;14.83;2.93;;;;;;;15.80;92.86;95171.78;4351477;32;20258;-62
2023/07/26 05:47:45;;;;;;;2.13;2.07;;;;;;;15.94;93.63;95169.59;4352678;32;20201;-62
2023/07/26 05:50:10;;;;;;;2.77;2.67;;;;;;;15.95;91.48;95173.84;4357039;32;20190;-62
2023/07/26 05:52:37;;;;;;;3.83;3.33;;;;;;;15.60;93.20;95176.06;4346982;32;20216;-62
2023/07/26 05:55:02;;;;;;;1.80;1.80;;;;;;;15.59;92.09;95179.09;4346639;32;23425;-62
2023/07/26 05:57:28;;;;;;;7.27;3.10;;;;;;;15.98;93.16;95183.91;4353860;32;20189;-62
2023/07/26 05:59:53;;;;;;;1.97;1.90;;;;;;;15.68;90.75;95185.91;4342967;32;20222;-62
2023/07/26 06:02:18;;;;;;;2.40;2.30;;;;;;;15.86;92.88;95181.16;4343471;32;20189;-62
2023/07/26 06:04:46;;;;;;;3.20;3.07;;;;;;;15.72;92.08;95192.16;4343632;32;20193;-62
2023/07/26 06:07:11;;;;;;;6.23;3.40;;;;;;;15.84;93.56;95188.75;4342154;32;20200;-63
2023/07/26 06:09:36;;;;;;;3.03;2.83;;;;;;;15.70;91.71;95188.25;4347468;32;20185;-63
2023/07/26 06:12:02;;;;;;;2.67;2.57;;;;;;;16.00;94.36;95187.00;4345701;32;20297;-62
2023/07/26 06:14:28;;;;;;;3.53;3.27;;;;;;;16.07;93.52;95187.25;4352991;32;20204;-62
2023/07/26 06:16:54;;;;;;;11.00;3.13;;;;;;;15.98;92.30;95199.16;4346380;32;20189;-62
2023/07/26 06:19:19;;;;;;;2.00;1.97;;;;;;;16.01;92.14;95187.78;4359286;32;20212;-62
2023/07/26 06:21:45;;;;;;;3.20;2.90;;;;;;;16.03;92.50;95207.75;4345014;32;20225;-62
2023/07/26 06:24:10;;;;;;;4.07;3.50;;;;;;;16.03;92.39;95206.97;4355278;32;20201;-62
2023/07/26 06:26:35;;;;;;;12.60;3.80;;;;;;;15.75;92.25;95204.09;4351323;32;20189;-62
2023/07/26 06:29:01;;;;;;;4.07;3.77;;;;;;;15.67;94.14;95210.28;4357742;32;20212;-62
2023/07/26 06:31:26;;;;;;;3.70;3.47;;;;;;;15.56;93.14;95207.25;4350615;32;20223;-62
2023/07/26 06:33:51;;;;;;;4.70;4.37;;;;;;;15.36;93.93;95213.34;4340546;32;20316;-62
2023/07/26 06:36:17;;;;;;;3.27;2.97;;;;;;;15.35;94.54;95217.13;4352590;32;20189;-62
2023/07/26 06:38:42;;;;;;;4.43;3.97;;;;;;;15.17;93.84;95218.38;4352646;32;20197;-62
2023/07/26 06:41:07;;;;;;;4.53;3.47;;;;;;;15.26;94.79;95208.38;4343347;32;20185;-62
2023/07/26 06:43:32;;;;;;;2.80;2.70;;;;;;;15.46;94.73;95223.66;4346117;32;20292;-62
2023/07/26 06:45:58;;;;;;;3.63;3.33;;;;;;;15.29;94.09;95221.87;4355252;32;20208;-62
2023/07/26 06:48:23;;;;;;;3.60;3.40;;;;;;;15.31;94.01;95230.37;4345753;32;20197;-62
2023/07/26 06:50:49;;;;;;;3.50;3.30;;;;;;;15.08;94.75;95224.53;4342698;32;20189;-62
2023/07/26 06:53:14;;;;;;;3.03;2.93;;;;;;;15.06;94.72;95226.75;4354536;32;20188;-62
2023/07/26 06:55:39;;;;;;;4.07;3.87;;;;;;;15.04;95.41;95233.50;4355379;32;20242;-61
2023/07/26 06:58:05;;;;;;;4.43;4.07;;;;;;;15.23;94.90;95233.88;4360031;32;20185;-61
2023/07/26 07:00:31;;;;;;;2.93;2.83;;;;;;;15.28;95.35;95230.22;4354062;32;20209;-62
2023/07/26 07:03:00;;;;;;;3.10;3.00;;;;;;;15.05;93.23;95235.88;4348292;32;20186;-63
2023/07/26 07:05:30;;;;;;;4.60;4.33;;;;;;;14.93;95.00;95235.78;4359342;32;20225;-62
2023/07/26 07:07:55;;;;;;;3.27;3.17;;;;;;;14.79;95.83;95238.66;4360385;32;20193;-63
2023/07/26 07:10:22;;;;;;;3.10;2.90;;;;;;;14.68;95.68;95248.16;4361004;32;20211;-62
2023/07/26 07:12:47;;;;;;;2.50;2.40;;;;;;;14.54;95.46;95249.47;4353208;32;20185;-62
2023/07/26 07:15:13;;;;;;;2.53;2.43;;;;;;;14.49;96.26;95244.31;4354977;32;20231;-62
2023/07/26 07:17:39;;;;;;;4.47;3.27;;;;;;;14.52;95.77;95257.03;4354685;32;20193;-62
2023/07/26 07:20:06;;;;;;;2.83;2.73;;;;;;;14.44;96.06;95256.72;4350868;32;20184;-62
2023/07/26 07:22:32;;;;;;;3.37;2.47;;;;;;;14.49;96.23;95249.66;4346890;32;20212;-63
2023/07/26 07:24:57;;;;;;;2.43;2.33;;;;;;;14.43;96.30;95254.38;4356336;32;20201;-62
2023/07/26 07:27:24;;;;;;;2.87;2.77;;;;;;;14.39;96.66;95253.41;4345514;32;20237;-63
2023/07/26 07:29:49;;;;;;;2.20;2.10;;;;;;;14.52;96.96;95251.69;4355371;32;20211;-63
2023/07/26 07:32:14;;;;;;;2.23;2.13;;;;;;;14.72;95.72;95258.97;4344893;32;20246;-63
2023/07/26 07:34:40;;;;;;;2.27;2.17;;;;;;;14.74;95.15;95257.56;4356640;32;20231;-62
2023/07/26 07:37:05;;;;;;;2.70;2.50;;;;;;;14.83;95.49;95262.06;4358372;32;20203;-63
2023/07/26 07:39:32;;;;;;;4.10;2.00;;;;;;;14.80;94.93;95258.16;4359149;32;20185;-62
2023/07/26 07:41:57;;;;;;;1.37;1.37;;;;;;;14.84;93.00;95261.75;4348709;32;20200;-62
2023/07/26 07:44:22;;;;;;;1.30;1.30;;;;;;;14.66;93.78;95258.38;4360796;32;20238;-62
2023/07/26 07:46:48;;;;;;;1.50;1.40;;;;;;;14.71;92.29;95260.09;4358793;32;20193;-63
2023/07/26 07:49:14;;;;;;;1.13;1.13;;;;;;;14.46;93.70;95263.62;4344189;32;20247;-63
2023/07/26 07:51:39;;;;;;;1.43;1.43;;;;;;;14.53;92.77;95270.06;4358213;32;20197;-62
2023/07/26 07:54:04;;;;;;;0.80;0.80;;;;;;;14.60;92.68;95262.31;4346460;32;20204;-62
2023/07/26 07:56:30;;;;;;;1.00;1.00;;;;;;;15.03;91.71;95267.47;4360842;32;20192;-63
2023/07/26 07:58:55;;;;;;;2.13;1.53;;;;;;;15.02;91.49;95271.25;4354326;32;20252;-62
2023/07/26 08:01:21;;;;;;;0.70;0.70;;;;;;;15.03;91.56;95278.16;4357447;32;20189;-63
2023/07/26 08:03:46;;;;;;;1.13;1.13;;;;;;;15.14;91.52;95278.59;4357722;32;20233;-63
2023/07/26 08:06:12;;;;;;;1.40;1.40;;;;;;;15.09;91.59;95279.53;4348897;32;20189;-62
2023/07/26 08:08:39;;;;;;;2.17;2.03;;;;;;;15.09;92.48;95276.88;4357265;32;20185;-63
2023/07/26 08:11:04;;;;;;;2.33;1.73;;;;;;;14.99;92.46;95279.12;4354141;32;20178;-63
2023/07/26 08:13:29;;;;;;;1.37;1.33;;;;;;;14.91;92.43;95278.06;4348621;32;20190;-63
2023/07/26 08:15:58;;;;;;;1.40;1.40;;;;;;;14.85;92.78;95276.66;4347925;32;20181;-62
2023/07/26 08:18:23;;;;;;;1.83;1.73;;;;;;;14.57;93.66;95278.97;4359904;32;20196;-63
2023/07/26 08:20:48;;;;;;;2.13;1.33;;;;;;;14.62;93.34;95278.00;4356613;32;20216;-63
2023/07/26 08:23:14;;;;;;;1.43;1.17;;;;;;;14.87;91.87;95290.50;4359415;32;20181;-63
2023/07/26 08:25:40;;;;;;;0.80;0.80;;;;;;;14.75;92.91;95287.72;4349430;32;20193;-63
2023/07/26 08:28:05;;;;;;;1.30;1.30;;;;;;;14.91;91.98;95275.41;4348148;32;20216;-62
2023/07/26 08:30:31;;;;;;;1.17;1.17;;;;;;;14.65;92.95;95283.50;4358010;32;20193;-65
2023/07/26 08:32:56;;;;;;;0.90;0.90;;;;;;;14.82;92.78;95279.97;4346830;32;20193;-62
2023/07/26 08:35:22;;;;;;;2.73;2.57;;;;;;;14.57;92.43;95292.31;4355580;32;20246;-62
2023/07/26 08:37:48;;;;;;;1.40;1.30;;;;;;;14.88;92.67;95285.94;4360647;32;20189;-62
2023/07/26 08:40:13;;;;;;;1.20;1.20;;;;;;;14.73;92.33;95285.38;4347756;32;20260;-62
2023/07/26 08:42:39;;;;;;;0.73;0.73;;;;;;;14.46;92.18;95282.31;4359135;32;20193;-63
2023/07/26 08:45:06;;;;;;;2.07;1.90;;;;;;;14.36;91.82;95286.84;4346102;32;20251;-63
2023/07/26 08:47:34;;;;;;;1.07;1.07;;;;;;;14.60;92.28;95290.91;4359483;32;20184;-61
2023/07/26 08:50:00;;;;;;;1.23;1.23;;;;;;;14.75;92.03;95293.06;4345823;32;20173;-62
2023/07/26 08:52:27;;;;;;;2.37;1.30;;;;;;;14.89;91.04;95292.84;4349793;32;20236;-61
2023/07/26 08:54:52;;;;;;;5.87;2.03;;;;;;;14.90;90.47;95299.75;4346022;32;20237;-62
2023/07/26 08:57:19;;;;;;;1.40;1.30;;;;;;;15.11;91.49;95293.38;4343929;32;20188;-61
2023/07/26 08:59:44;;;;;;;0.63;0.63;;;;;;;15.05;90.64;95289.31;4351770;32;20228;-63
2023/07/26 09:02:13;;;;;;;1.33;1.23;;;;;;;15.19;89.98;95290.97;4351113;32;20290;-62
2023/07/26 09:04:39;;;;;;;0.90;0.90;;;;;;;15.12;89.19;95292.25;4347324;32;20193;-62
2023/07/26 09:07:05;;;;;;;0.80;0.80;;;;;;;15.17;90.40;95293.97;4355152;32;20201;-62
2023/07/26 09:09:32;;;;;;;1.30;1.27;;;;;;;15.39;88.94;95296.34;4347218;32;20208;-62
2023/07/26 09:11:58;;;;;;;1.10;1.10;;;;;;;15.38;88.17;95289.44;4358774;32;20193;-62
2023/07/26 09:14:28;;;;;;;1.17;1.17;;;;;;;15.46;87.85;95285.94;4361406;32;20274;-62
2023/07/26 09:16:56;;;;;;;5.20;1.37;;;;;;;15.48;86.47;95286.38;4360067;32;20243;-62
2023/07/26 09:19:30;;;;;;;1.53;1.43;;;;;;;15.66;88.05;95288.97;4346510;32;20205;-60
2023/07/26 09:22:13;;;;;;;1.30;1.30;;;;;;;15.59;87.69;95289.47;4344685;32;20193;-63
2023/07/26 09:24:42;;;;;;;0.77;0.77;;;;;;;15.77;86.69;95290.94;4360553;32;20207;-63
2023/07/26 09:27:11;;;;;;;1.10;1.10;;;;;;;15.69;84.28;95286.44;4354057;32;20317;-62
2023/07/26 09:29:41;;;;;;;1.23;1.23;;;;;;;15.88;85.33;95290.53;4353959;32;20201;-61
2023/07/26 09:32:07;;;;;;;2.47;1.00;;;;;;;15.96;83.44;95293.16;4359717;32;20200;-61
2023/07/26 09:34:32;;;;;;;0.50;0.50;;;;;;;16.05;82.51;95285.03;4348285;32;20181;-61
2023/07/26 09:36:59;;;;;;;0.33;0.33;;;;;;;16.14;82.38;95291.88;4353771;32;20207;-60
2023/07/26 09:39:27;;;;;;;0.73;0.73;;;;;;;16.20;83.34;95292.47;4343596;32;20203;-62
2023/07/26 09:42:06;;;;;;;0.87;0.87;;;;;;;16.26;83.74;95293.03;4352741;32;20205;-61
2023/07/26 09:44:32;;;;;;;0.90;0.90;;;;;;;16.30;83.01;95291.25;4344878;32;20251;-61
2023/07/26 09:46:57;;;;;;;0.90;0.90;;;;;;;16.17;81.93;95290.44;4357574;32;20264;-62
2023/07/26 09:49:27;;;;;;;0.47;0.47;;;;;;;16.13;82.74;95281.50;4352735;32;20193;-62
2023/07/26 09:51:54;;;;;;;1.70;0.97;;;;;;;16.38;81.90;95283.16;4355432;32;20238;-61
2023/07/26 09:54:21;;;;;;;0.47;0.47;;;;;;;16.31;80.83;95285.56;4354365;32;20181;-61
2023/07/26 09:56:47;;;;;;;0.30;0.30;;;;;;;16.59;80.77;95279.62;4355679;32;20193;-60
2023/07/26 09:59:13;;;;;;;0.87;0.87;;;;;;;17.34;90.02;95280.12;4341936;32;20195;-60
2023/07/26 10:01:44;;;;;;;16.03;0.93;;;;;;;18.02;89.13;95282.91;4345952;32;20185;-60
2023/07/26 10:04:47;;;;;;;0.80;0.80;;;;;;;18.47;82.72;95272.66;4340081;32;20254;-60
2023/07/26 10:07:13;;;;;;;0.53;0.53;;;;;;;18.91;80.20;95269.16;4340998;32;20259;-61
2023/07/26 10:09:46;;;;;;;0.50;0.50;;;;;;;19.23;76.75;95268.78;4342141;32;20211;-61
2023/07/26 10:12:13;;;;;;;0.30;0.30;;;;;;;19.46;73.58;95257.34;4346127;32;20193;-61
2023/07/26 10:14:39;;;;;;;0.50;0.50;;;;;;;19.46;71.68;95257.34;4358195;32;20207;-60
2023/07/26 10:17:05;;;;;;;0.80;0.57;;;;;;;19.58;71.75;95246.50;4359484;32;20189;-60
2023/07/26 10:19:31;;;;;;;0.63;0.40;;;;;;;19.66;70.90;95256.28;4346351;32;20188;-61
2023/07/26 10:21:57;;;;;;;2.40;0.80;;;;;;;19.65;70.70;95252.03;4359101;32;20190;-60
2023/07/26 10:24:24;;;;;;;0.40;0.40;;;;;;;19.76;71.06;95239.56;4357200;32;20197;-60
2023/07/26 10:26:51;;;;;;;0.20;0.20;;;;;;;19.80;70.25;95245.81;4346880;32;20197;-60
2023/07/26 10:29:18;;;;;;;0.40;0.40;;;;;;;19.79;70.23;95246.94;4357761;32;20189;-60
2023/07/26 10:31:44;;;;;;;0.50;0.50;;;;;;;19.77;69.32;95243.81;4354069;32;20196;-58
2023/07/26 10:34:19;;;;;;;0.73;0.67;;;;;;;19.60;70.06;95249.62;4340084;32;20208;-60
2023/07/26 10:36:45;;;;;;;0.53;0.43;;;;;;;19.62;69.48;95247.34;4349965;32;20239;-60
2023/07/26 10:39:11;;;;;;;0.70;0.43;;;;;;;19.60;70.81;95246.91;4359350;32;20199;-61
2023/07/26 10:41:46;;;;;;;4.43;0.90;;;;;;;19.60;74.43;95249.62;4339961;32;20227;-62
2023/07/26 10:44:12;;;;;;;0.80;0.80;;;;;;;19.52;74.96;95246.00;4358912;32;20188;-61
2023/07/26 10:46:49;;;;;;;1.00;0.83;;;;;;;16.43;82.09;95250.78;4349702;32;20264;-62
2023/07/26 10:49:26;;;;;;;0.60;0.60;;;;;;;17.74;81.49;95248.78;4355704;32;20302;-61
2023/07/26 10:52:00;;;;;;;0.30;0.30;;;;;;;18.01;80.32;95233.81;4355813;32;20220;-62
2023/07/26 10:54:39;;;;;;;1.07;1.07;;;;;;;18.47;78.48;95240.41;4337766;32;20205;-61
2023/07/26 10:57:23;;;;;;;0.50;0.50;;;;;;;18.91;76.59;95240.38;4341821;32;20244;-60
2023/07/26 10:59:52;;;;;;;0.20;0.20;;;;;;;18.87;77.12;95231.44;4357272;32;20226;-60
2023/07/26 11:02:36;;;;;;;0.97;0.73;;;;;;;18.81;76.73;95227.44;4351634;32;20208;-60
2023/07/26 11:05:02;;;;;;;0.70;0.70;;;;;;;18.87;76.37;95223.38;4346333;32;20186;-60
2023/07/26 11:07:48;;;;;;;0.83;0.47;;;;;;;18.76;76.45;95220.41;4359843;32;20267;-60
2023/07/26 11:10:18;;;;;;;0.43;0.43;;;;;;;18.83;76.62;95217.13;4346246;32;20197;-61
2023/07/26 11:12:44;;;;;;;0.20;0.20;;;;;;;19.08;74.91;95226.56;4357586;32;20232;-60
2023/07/26 11:15:09;;;;;;;0.40;0.40;;;;;;;19.02;74.62;95217.19;4352825;32;20244;-60
2023/07/26 11:17:42;;;;;;;0.50;0.50;;;;;;;18.98;73.89;95215.53;4344121;32;20207;-60
2023/07/26 11:20:09;;;;;;;0.47;0.47;;;;;;;19.04;73.76;95216.84;4351535;32;20193;-60
2023/07/26 11:22:34;;;;;;;0.63;0.43;;;;;;;18.94;76.27;95211.97;4343497;32;20266;-61
2023/07/26 11:25:05;;;;;;;0.40;0.27;;;;;;;19.10;75.43;95210.06;4340952;32;20204;-61
2023/07/26 11:27:31;;;;;;;0.73;0.73;;;;;;;19.65;76.00;95213.56;4352765;32;20205;-61
2023/07/26 11:30:01;;;;;;;0.70;0.70;;;;;;;19.23;75.80;95211.50;4346270;32;20205;-61
2023/07/26 11:32:28;;;;;;;0.10;0.10;;;;;;;19.42;73.48;95208.06;4343004;32;20189;-61